Lunteren, Netherlands
Current Conditions -  °F | °C
As of 12:25 PM on Saturday 01 Nov 2014 (Local Time) from EHDL Reporting Station
Few Clouds Few Clouds  
Wind Chill: 64°   Ceiling: Unl
Heat Index: 64°   Visibility: 6mi
Dew Point: 54°   Wind: 8mph
Humidity: 68%   Direction: 200°SSW
Pressure: 30.06"   Gusts: NA
Location:  52.09°N, 5.62°E
Report Text: EHDL 011125Z AUTO 20007KT 9999 FEW099 18/12 Q1018 BLU
Loading
Personal Weather Stations






























Interactive Weather Map
Tropical Storm Tracking
New forecast layout! Learn more

10-Day Weather Forecast

Advertisements
Track Severe Weather on mobile